Time;durP1;ratioP1;P1;durP2;ratioP2;P2;SDS_P1;SDS_P2;PMS_P1;PMS_P2;Temp;Humidity;BMP_temperature;BMP_pressure;BME280_temperature;BME280_humidity;BME280_pressure;Samples;Min_cycle;Max_cycle;Signal;HPM_P1;HPM_P2
2021/08/30 00:02:17;;;;;;;;;;;18.70;34.20;;;;;;4343110;33;20399;-37
2021/08/30 00:04:43;;;;;;;;;;;18.70;34.30;;;;;;4342851;33;20423;-37
2021/08/30 00:07:09;;;;;;;;;;;18.60;34.30;;;;;;4330673;33;19985;-37
2021/08/30 00:09:35;;;;;;;;;;;18.60;34.30;;;;;;4343155;33;19989;-38
2021/08/30 00:12:02;;;;;;;;;;;18.60;34.30;;;;;;4342799;33;20449;-37
2021/08/30 00:14:28;;;;;;;;;;;18.70;34.20;;;;;;4343116;33;20118;-38
2021/08/30 00:16:55;;;;;;;;;;;18.70;34.20;;;;;;4342719;33;20423;-38
2021/08/30 00:19:21;;;;;;;;;;;18.80;34.10;;;;;;4342750;33;19974;-38
2021/08/30 00:21:47;;;;;;;;;;;18.80;34.00;;;;;;4342706;33;19957;-39
2021/08/30 00:24:13;;;;;;;;;;;18.80;34.00;;;;;;4342502;33;19968;-37
2021/08/30 00:26:39;;;;;;;;;;;18.80;33.90;;;;;;4342368;33;19989;-37
2021/08/30 00:29:05;;;;;;;;;;;18.80;33.80;;;;;;4342526;33;19977;-37
2021/08/30 00:31:32;;;;;;;;;;;18.80;33.80;;;;;;4347853;32;19965;-37
2021/08/30 00:33:58;;;;;;;;;;;18.90;33.90;;;;;;4344989;32;20511;-38
2021/08/30 00:36:25;;;;;;;;;;;18.80;33.70;;;;;;4343287;33;19962;-37
2021/08/30 00:38:54;;;;;;;;;;;18.80;33.60;;;;;;4343566;33;20041;-37
2021/08/30 00:41:20;;;;;;;;;;;18.80;33.50;;;;;;4345092;32;19985;-38
2021/08/30 00:43:46;;;;;;;;;;;18.80;33.50;;;;;;4345275;32;20009;-38
2021/08/30 00:46:17;;;;;;;;;;;18.80;33.60;;;;;;4344085;32;19969;-38
2021/08/30 00:48:50;;;;;;;;;;;18.80;33.70;;;;;;4344802;32;20378;-37
2021/08/30 00:51:18;;;;;;;;;;;18.80;33.70;;;;;;4345053;32;20395;-38
2021/08/30 00:53:45;;;;;;;;;;;18.70;33.80;;;;;;4344787;32;19989;-38
2021/08/30 00:56:12;;;;;;;;;;;18.70;33.80;;;;;;4344955;32;19985;-38
2021/08/30 00:58:41;;;;;;;;;;;18.70;33.90;;;;;;4343194;33;19982;-37
2021/08/30 01:01:08;;;;;;;;;;;18.70;33.80;;;;;;4344296;32;20141;-39
2021/08/30 01:03:34;;;;;;;;;;;18.60;33.70;;;;;;4343129;33;20388;-38
2021/08/30 01:06:07;;;;;;;;;;;18.60;33.80;;;;;;4342788;33;19969;-39
2021/08/30 01:08:34;;;;;;;;;;;18.60;33.90;;;;;;4329970;33;19969;-38
2021/08/30 01:11:06;;;;;;;;;;;18.50;33.70;;;;;;4341975;33;19973;-38
2021/08/30 01:13:57;;;;;;;;;;;18.50;33.70;;;;;;4342003;33;19970;-37
2021/08/30 01:16:24;;;;;;;;;;;18.50;33.60;;;;;;4337323;33;20476;-38
2021/08/30 01:18:50;;;;;;;;;;;18.50;33.60;;;;;;4330101;33;19958;-37
2021/08/30 01:21:34;;;;;;;;;;;18.40;33.70;;;;;;4325144;32;20029;-37
2021/08/30 01:24:06;;;;;;;;;;;18.40;33.70;;;;;;4300311;33;20002;-37
2021/08/30 01:26:33;;;;;;;;;;;18.40;33.80;;;;;;4300772;33;20717;-38
2021/08/30 01:29:07;;;;;;;;;;;18.40;33.70;;;;;;4312135;33;19966;-38
2021/08/30 01:31:37;;;;;;;;;;;18.40;33.90;;;;;;4312680;33;19965;-38
2021/08/30 01:34:03;;;;;;;;;;;18.40;33.70;;;;;;4299885;33;20379;-38
2021/08/30 01:36:29;;;;;;;;;;;18.40;33.70;;;;;;4312305;33;19966;-38
2021/08/30 01:38:59;;;;;;;;;;;18.40;33.70;;;;;;4303667;33;19954;-39
2021/08/30 01:41:25;;;;;;;;;;;18.40;33.60;;;;;;4314887;33;19959;-39
2021/08/30 01:43:52;;;;;;;;;;;18.40;33.60;;;;;;4327016;33;20030;-38
2021/08/30 01:46:18;;;;;;;;;;;18.50;33.60;;;;;;4270905;33;20397;-37
2021/08/30 01:48:49;;;;;;;;;;;18.50;33.60;;;;;;4271375;33;19985;-38
2021/08/30 01:51:20;;;;;;;;;;;18.50;33.50;;;;;;4271781;33;20077;-39
2021/08/30 01:53:46;;;;;;;;;;;18.50;34.20;;;;;;4271668;33;19967;-39
2021/08/30 01:56:13;;;;;;;;;;;18.60;33.50;;;;;;4299112;33;19975;-38
2021/08/30 02:01:06;;;;;;;;;;;18.60;33.30;;;;;;4300336;33;19973;-39
2021/08/30 02:03:32;;;;;;;;;;;18.60;33.30;;;;;;4299904;33;20065;-39
2021/08/30 02:06:05;;;;;;;;;;;18.60;33.20;;;;;;4311838;33;19970;-38
2021/08/30 02:08:32;;;;;;;;;;;18.60;33.20;;;;;;4312233;33;19970;-38
2021/08/30 02:11:06;;;;;;;;;;;18.60;33.30;;;;;;4311699;33;20419;-37
2021/08/30 02:13:32;;;;;;;;;;;18.60;33.30;;;;;;4312022;33;19955;-38
2021/08/30 02:16:00;;;;;;;;;;;18.50;33.40;;;;;;4299728;33;19970;-37
2021/08/30 02:18:40;;;;;;;;;;;18.50;33.40;;;;;;4342992;32;19962;-37
2021/08/30 02:21:28;;;;;;;;;;;18.50;33.50;;;;;;4333193;32;19966;-37
2021/08/30 02:23:58;;;;;;;;;;;18.50;33.50;;;;;;4358753;32;19962;-38
2021/08/30 02:26:27;;;;;;;;;;;18.60;33.50;;;;;;4358728;32;20034;-38
2021/08/30 02:28:53;;;;;;;;;;;18.60;33.50;;;;;;4332384;32;20066;-38
2021/08/30 02:31:19;;;;;;;;;;;18.70;33.50;;;;;;4338030;32;20394;-37
2021/08/30 02:33:45;;;;;;;;;;;18.90;33.50;;;;;;4359292;32;20469;-37
2021/08/30 02:36:11;;;;;;;;;;;19.00;33.40;;;;;;4359154;32;19968;-37
2021/08/30 02:38:39;;;;;;;;;;;19.10;33.40;;;;;;4359303;32;19953;-39
2021/08/30 02:41:05;;;;;;;;;;;19.20;33.30;;;;;;4359384;32;19968;-39
2021/08/30 02:43:31;;;;;;;;;;;19.30;33.20;;;;;;4359535;32;20040;-38
2021/08/30 02:45:58;;;;;;;;;;;19.40;33.30;;;;;;4359177;32;19989;-38
2021/08/30 02:48:24;;;;;;;;;;;19.50;33.30;;;;;;4359448;32;20012;-39
2021/08/30 02:50:50;;;;;;;;;;;19.70;33.20;;;;;;4359215;32;20069;-39
2021/08/30 02:53:16;;;;;;;;;;;19.90;33.20;;;;;;4373045;32;19975;-38
2021/08/30 02:55:43;;;;;;;;;;;20.10;33.00;;;;;;4359105;32;20368;-36
2021/08/30 02:58:16;;;;;;;;;;;20.30;32.80;;;;;;4373398;32;19980;-38
2021/08/30 03:00:42;;;;;;;;;;;20.50;32.80;;;;;;4359100;32;19961;-37
2021/08/30 03:03:09;;;;;;;;;;;20.80;32.70;;;;;;4359318;32;19981;-38
2021/08/30 03:05:35;;;;;;;;;;;21.00;32.60;;;;;;4373152;32;19962;-37
2021/08/30 03:08:01;;;;;;;;;;;21.20;32.40;;;;;;4360338;32;19964;-37
2021/08/30 03:10:28;;;;;;;;;;;21.40;32.00;;;;;;4362598;32;20062;-38
2021/08/30 03:12:54;;;;;;;;;;;21.60;31.80;;;;;;4349650;32;19968;-37
2021/08/30 03:15:23;;;;;;;;;;;21.80;31.60;;;;;;4361922;32;19957;-37
2021/08/30 03:17:49;;;;;;;;;;;22.00;31.50;;;;;;4376070;32;19981;-38
2021/08/30 03:20:18;;;;;;;;;;;22.10;31.40;;;;;;4361997;32;19953;-37
2021/08/30 03:22:45;;;;;;;;;;;22.30;31.30;;;;;;4376275;32;19957;-37
2021/08/30 03:25:14;;;;;;;;;;;22.40;31.20;;;;;;4362207;32;19953;-37
2021/08/30 03:27:43;;;;;;;;;;;22.50;31.10;;;;;;4362369;32;19965;-38
2021/08/30 03:30:10;;;;;;;;;;;22.60;31.00;;;;;;4375950;32;19961;-37
2021/08/30 03:32:37;;;;;;;;;;;22.80;31.10;;;;;;4361432;32;19981;-37
2021/08/30 03:35:04;;;;;;;;;;;22.90;30.90;;;;;;4360883;32;19957;-37
2021/08/30 03:37:30;;;;;;;;;;;23.10;30.60;;;;;;4360883;32;19993;-38
2021/08/30 03:39:56;;;;;;;;;;;23.30;30.50;;;;;;4359276;32;19965;-37
2021/08/30 03:42:23;;;;;;;;;;;23.50;30.50;;;;;;4359393;32;19962;-38
2021/08/30 03:44:50;;;;;;;;;;;23.60;30.40;;;;;;4360765;32;20350;-38
2021/08/30 03:47:16;;;;;;;;;;;23.80;30.10;;;;;;4359035;32;19961;-38
2021/08/30 03:49:42;;;;;;;;;;;23.90;30.00;;;;;;4359033;32;19965;-37
2021/08/30 03:52:08;;;;;;;;;;;24.10;29.90;;;;;;4359041;32;20433;-38
2021/08/30 03:54:34;;;;;;;;;;;24.20;29.80;;;;;;4358742;32;19966;-37
2021/08/30 03:57:01;;;;;;;;;;;24.30;29.70;;;;;;4360726;32;20459;-37
2021/08/30 03:59:29;;;;;;;;;;;24.40;29.50;;;;;;4359137;32;19981;-38
2021/08/30 04:01:55;;;;;;;;;;;24.70;29.40;;;;;;4358971;32;19958;-37
2021/08/30 04:04:23;;;;;;;;;;;24.90;29.30;;;;;;4358928;32;20031;-38
2021/08/30 04:06:49;;;;;;;;;;;25.30;29.20;;;;;;4359036;32;19973;-38
2021/08/30 04:09:20;;;;;;;;;;;25.60;29.00;;;;;;4358634;32;20031;-38
2021/08/30 04:11:47;;;;;;;;;;;25.90;28.90;;;;;;4360295;32;19969;-38
2021/08/30 04:14:14;;;;;;;;;;;26.30;28.70;;;;;;4360423;32;20405;-38
2021/08/30 04:16:40;;;;;;;;;;;26.60;28.50;;;;;;4358690;32;20032;-39
2021/08/30 04:19:06;;;;;;;;;;;26.90;28.20;;;;;;4357913;32;20056;-37
2021/08/30 04:21:32;;;;;;;;;;;27.10;28.10;;;;;;4369035;32;19965;-38
2021/08/30 04:23:59;;;;;;;;;;;27.30;28.00;;;;;;4315341;33;20013;-38
2021/08/30 04:26:25;;;;;;;;;;;27.60;27.80;;;;;;4327810;33;19954;-41
2021/08/30 04:28:51;;;;;;;;;;;27.80;27.70;;;;;;4327800;33;19993;-38
2021/08/30 04:31:18;;;;;;;;;;;28.00;27.30;;;;;;4321101;33;19969;-37
2021/08/30 04:33:45;;;;;;;;;;;28.30;27.20;;;;;;4342344;33;20050;-38
2021/08/30 04:36:11;;;;;;;;;;;28.50;26.90;;;;;;4342165;33;19978;-38
2021/08/30 04:38:37;;;;;;;;;;;28.80;26.60;;;;;;4342415;33;19978;-38
2021/08/30 04:41:03;;;;;;;;;;;29.10;26.20;;;;;;4342102;33;19962;-38
2021/08/30 04:43:30;;;;;;;;;;;29.40;25.90;;;;;;4330030;33;19993;-38
2021/08/30 04:45:56;;;;;;;;;;;29.80;25.80;;;;;;4342554;33;19974;-38
2021/08/30 04:48:22;;;;;;;;;;;30.10;25.30;;;;;;4317973;33;19989;-38
2021/08/30 04:50:49;;;;;;;;;;;30.30;25.20;;;;;;4342455;33;20048;-39
2021/08/30 04:53:15;;;;;;;;;;;30.60;25.00;;;;;;4342560;33;20402;-39
2021/08/30 04:55:41;;;;;;;;;;;30.90;25.00;;;;;;4356092;32;19958;-38
2021/08/30 04:58:11;;;;;;;;;;;31.10;24.80;;;;;;4359739;32;20398;-38
2021/08/30 05:00:38;;;;;;;;;;;31.20;24.50;;;;;;4327223;33;19986;-39
2021/08/30 05:03:04;;;;;;;;;;;31.30;23.80;;;;;;4327273;33;20029;-38
2021/08/30 05:05:30;;;;;;;;;;;31.40;24.10;;;;;;4327516;33;19986;-38
2021/08/30 05:07:57;;;;;;;;;;;31.70;24.20;;;;;;4327275;33;20042;-38
2021/08/30 05:10:23;;;;;;;;;;;31.90;24.10;;;;;;4327262;33;19962;-38
2021/08/30 05:12:50;;;;;;;;;;;32.30;23.80;;;;;;4327080;33;20106;-38
2021/08/30 05:15:16;;;;;;;;;;;32.50;23.40;;;;;;4327254;33;20476;-38
2021/08/30 05:17:43;;;;;;;;;;;32.60;23.00;;;;;;4314988;33;19983;-40
2021/08/30 05:20:09;;;;;;;;;;;32.60;23.40;;;;;;4327049;33;19963;-39
2021/08/30 05:22:36;;;;;;;;;;;32.80;23.30;;;;;;4327205;33;20056;-38
2021/08/30 05:25:02;;;;;;;;;;;32.80;22.80;;;;;;4327163;33;19970;-38
2021/08/30 05:27:28;;;;;;;;;;;32.80;22.80;;;;;;4326908;33;20065;-39
2021/08/30 05:29:54;;;;;;;;;;;32.70;22.80;;;;;;4326386;33;19954;-39
2021/08/30 05:32:30;;;;;;;;;;;32.80;23.10;;;;;;4341552;33;19985;-38
2021/08/30 05:34:57;;;;;;;;;;;32.70;22.70;;;;;;4344170;33;20028;-38
2021/08/30 05:37:23;;;;;;;;;;;32.70;22.80;;;;;;4344346;33;20057;-39
2021/08/30 05:39:49;;;;;;;;;;;32.60;22.50;;;;;;4344227;33;20460;-39
2021/08/30 05:42:16;;;;;;;;;;;32.50;22.60;;;;;;4344074;33;19976;-39
2021/08/30 05:44:42;;;;;;;;;;;32.40;22.60;;;;;;4330110;33;20022;-38
2021/08/30 05:47:08;;;;;;;;;;;32.20;22.60;;;;;;4343411;33;20517;-39
2021/08/30 05:49:35;;;;;;;;;;;32.20;22.40;;;;;;4343992;33;20362;-39
2021/08/30 05:52:01;;;;;;;;;;;32.10;22.50;;;;;;4343459;33;20055;-39
2021/08/30 05:54:27;;;;;;;;;;;32.00;22.20;;;;;;4343814;33;19973;-39
2021/08/30 05:56:53;;;;;;;;;;;32.00;22.50;;;;;;4343542;33;19969;-38
2021/08/30 05:59:19;;;;;;;;;;;32.10;22.70;;;;;;4343521;33;20054;-39
2021/08/30 06:01:45;;;;;;;;;;;32.10;22.80;;;;;;4343844;33;19989;-41
2021/08/30 06:04:12;;;;;;;;;;;32.20;22.70;;;;;;4343633;33;20402;-40
2021/08/30 06:06:38;;;;;;;;;;;32.30;22.60;;;;;;4343822;33;19958;-38
2021/08/30 06:09:04;;;;;;;;;;;32.40;22.40;;;;;;4343984;33;20428;-39
2021/08/30 06:11:30;;;;;;;;;;;32.60;22.50;;;;;;4343438;33;20414;-38
2021/08/30 06:13:57;;;;;;;;;;;32.80;22.40;;;;;;4343543;33;19988;-39
2021/08/30 06:16:23;;;;;;;;;;;32.80;22.00;;;;;;4343084;33;20386;-39
2021/08/30 06:18:49;;;;;;;;;;;32.90;21.80;;;;;;4343400;33;20078;-39
2021/08/30 06:21:15;;;;;;;;;;;33.00;21.90;;;;;;4350051;32;19954;-43
2021/08/30 06:23:41;;;;;;;;;;;33.10;21.80;;;;;;4358270;32;20000;-40
2021/08/30 06:26:08;;;;;;;;;;;33.10;21.90;;;;;;4358697;32;19965;-38
2021/08/30 06:28:34;;;;;;;;;;;33.00;21.80;;;;;;4358116;32;20046;-39
2021/08/30 06:31:00;;;;;;;;;;;33.00;21.10;;;;;;4358067;32;20024;-39
2021/08/30 06:33:26;;;;;;;;;;;33.00;21.40;;;;;;4358592;32;20045;-38
2021/08/30 06:35:52;;;;;;;;;;;33.00;21.10;;;;;;4358191;32;19992;-38
2021/08/30 06:38:20;;;;;;;;;;;33.00;21.30;;;;;;4358102;32;20422;-39
2021/08/30 06:40:47;;;;;;;;;;;33.00;21.30;;;;;;4358444;32;20406;-39
2021/08/30 06:43:13;;;;;;;;;;;33.10;21.40;;;;;;4360612;32;19996;-41
2021/08/30 06:45:39;;;;;;;;;;;33.10;21.50;;;;;;4363600;32;20020;-39
2021/08/30 06:48:05;;;;;;;;;;;33.20;21.70;;;;;;4363375;32;20537;-39
2021/08/30 06:50:31;;;;;;;;;;;33.20;21.60;;;;;;4363426;32;20087;-39
2021/08/30 06:52:58;;;;;;;;;;;33.40;21.80;;;;;;4363179;32;20001;-38
2021/08/30 06:55:24;;;;;;;;;;;33.50;21.80;;;;;;4362861;32;20070;-38
2021/08/30 06:57:50;;;;;;;;;;;33.70;21.70;;;;;;4363272;32;19989;-38
2021/08/30 07:00:18;;;;;;;;;;;33.80;21.80;;;;;;4349116;32;20030;-39
2021/08/30 07:02:45;;;;;;;;;;;34.00;21.70;;;;;;4362829;32;20398;-40
2021/08/30 07:05:11;;;;;;;;;;;34.20;21.30;;;;;;4363279;32;20413;-39
2021/08/30 07:07:38;;;;;;;;;;;34.30;21.00;;;;;;4363300;32;19965;-39
2021/08/30 07:10:07;;;;;;;;;;;34.30;20.90;;;;;;4363120;32;19958;-38
2021/08/30 07:12:33;;;;;;;;;;;34.40;21.00;;;;;;4363116;32;19958;-38
2021/08/30 07:14:59;;;;;;;;;;;34.40;20.90;;;;;;4362752;32;19966;-39
2021/08/30 07:17:26;;;;;;;;;;;34.40;21.00;;;;;;4362809;32;20392;-39
2021/08/30 07:19:52;;;;;;;;;;;34.40;21.10;;;;;;4363222;32;19964;-40
2021/08/30 07:22:18;;;;;;;;;;;34.40;21.00;;;;;;4362642;32;20070;-39
2021/08/30 07:24:44;;;;;;;;;;;34.30;21.00;;;;;;4362456;32;19973;-38
2021/08/30 07:27:11;;;;;;;;;;;34.30;20.90;;;;;;4363302;32;19961;-39
2021/08/30 07:29:37;;;;;;;;;;;34.20;20.90;;;;;;4349009;32;19981;-38
2021/08/30 07:32:04;;;;;;;;;;;34.20;21.00;;;;;;4363043;32;19989;-38
2021/08/30 07:34:30;;;;;;;;;;;34.30;21.10;;;;;;4362769;32;19964;-39
2021/08/30 07:36:56;;;;;;;;;;;34.40;21.10;;;;;;4362341;32;20461;-39
2021/08/30 07:39:22;;;;;;;;;;;34.40;21.00;;;;;;4362711;32;20039;-38
2021/08/30 07:41:49;;;;;;;;;;;34.50;21.00;;;;;;4363149;32;19955;-39
2021/08/30 07:44:15;;;;;;;;;;;34.50;21.00;;;;;;4362864;32;19985;-39
2021/08/30 07:46:41;;;;;;;;;;;34.50;21.00;;;;;;4363226;32;20402;-39
2021/08/30 07:49:08;;;;;;;;;;;34.60;21.10;;;;;;4362631;32;20161;-39
2021/08/30 07:51:34;;;;;;;;;;;34.60;21.00;;;;;;4362900;32;19985;-38
2021/08/30 07:54:00;;;;;;;;;;;34.60;21.10;;;;;;4361995;32;19965;-39
2021/08/30 07:56:27;;;;;;;;;;;34.60;21.00;;;;;;4360391;32;19957;-39
2021/08/30 07:58:53;;;;;;;;;;;34.70;20.90;;;;;;4359958;32;19954;-39
2021/08/30 08:01:19;;;;;;;;;;;34.80;20.90;;;;;;4346435;32;19976;-39
2021/08/30 08:03:46;;;;;;;;;;;34.80;21.00;;;;;;4360167;32;19966;-39
2021/08/30 08:06:12;;;;;;;;;;;34.70;20.90;;;;;;4360307;32;20029;-38
2021/08/30 08:08:39;;;;;;;;;;;34.70;20.90;;;;;;4360480;32;19965;-39
2021/08/30 08:11:09;;;;;;;;;;;34.70;20.90;;;;;;4359861;32;19958;-40
2021/08/30 08:13:36;;;;;;;;;;;34.80;21.00;;;;;;4360071;32;20000;-39
2021/08/30 08:16:02;;;;;;;;;;;34.80;21.00;;;;;;4359980;32;19981;-39
2021/08/30 08:18:30;;;;;;;;;;;34.90;20.80;;;;;;4360185;32;20491;-39
2021/08/30 08:20:56;;;;;;;;;;;35.00;20.70;;;;;;4345761;32;20434;-38
2021/08/30 08:23:22;;;;;;;;;;;35.10;20.70;;;;;;4360010;32;19969;-39
2021/08/30 08:25:49;;;;;;;;;;;35.10;20.70;;;;;;4359914;32;19962;-39
2021/08/30 08:28:15;;;;;;;;;;;35.20;20.70;;;;;;4359989;32;19981;-39
2021/08/30 08:30:41;;;;;;;;;;;35.20;20.70;;;;;;4361654;32;20452;-39
2021/08/30 08:33:07;;;;;;;;;;;35.20;20.40;;;;;;4374499;32;19985;-39
2021/08/30 08:35:34;;;;;;;;;;;35.40;20.50;;;;;;4375052;32;19959;-39
2021/08/30 08:38:00;;;;;;;;;;;35.30;20.40;;;;;;4374650;32;19969;-39
2021/08/30 08:40:26;;;;;;;;;;;35.30;20.30;;;;;;4360877;32;20414;-39
2021/08/30 08:42:52;;;;;;;;;;;35.30;20.40;;;;;;4374483;32;19972;-39
2021/08/30 08:45:21;;;;;;;;;;;35.30;20.40;;;;;;4374910;32;19969;-40
2021/08/30 08:47:47;;;;;;;;;;;35.30;20.20;;;;;;4374488;32;19965;-39
2021/08/30 08:50:15;;;;;;;;;;;35.40;20.10;;;;;;4374488;32;20435;-39
2021/08/30 08:53:04;;;;;;;;;;;35.50;20.10;;;;;;4362830;32;20050;-39
2021/08/30 08:55:35;;;;;;;;;;;35.60;20.20;;;;;;4361215;32;19953;-39
2021/08/30 08:58:10;;;;;;;;;;;35.60;20.20;;;;;;4361126;32;19973;-40
2021/08/30 09:00:37;;;;;;;;;;;35.60;20.40;;;;;;4374304;32;20315;-47
2021/08/30 09:03:03;;;;;;;;;;;35.60;21.00;;;;;;4374354;32;20420;-39
2021/08/30 09:05:34;;;;;;;;;;;35.60;21.10;;;;;;4373705;32;20346;-39
2021/08/30 09:08:04;;;;;;;;;;;35.50;20.80;;;;;;4374325;32;19954;-39
2021/08/30 09:10:33;;;;;;;;;;;35.40;21.10;;;;;;4360681;32;19978;-39
2021/08/30 09:13:07;;;;;;;;;;;35.30;20.90;;;;;;4374206;32;20033;-40
2021/08/30 09:15:39;;;;;;;;;;;35.30;21.10;;;;;;4374070;32;19989;-40
2021/08/30 09:18:10;;;;;;;;;;;35.50;20.90;;;;;;4360286;32;20547;-39
2021/08/30 09:20:37;;;;;;;;;;;35.80;20.60;;;;;;4374206;32;20037;-39
2021/08/30 09:23:13;;;;;;;;;;;35.80;21.50;;;;;;4374465;32;19997;-38
2021/08/30 09:25:40;;;;;;;;;;;35.60;21.70;;;;;;4374168;32;20065;-39
2021/08/30 09:28:06;;;;;;;;;;;35.20;22.00;;;;;;4373785;32;20354;-39
2021/08/30 09:30:32;;;;;;;;;;;34.90;22.10;;;;;;4372703;32;20065;-39
2021/08/30 09:32:58;;;;;;;;;;;35.00;22.40;;;;;;4357769;32;20406;-39
2021/08/30 09:35:25;;;;;;;;;;;35.20;22.40;;;;;;4357383;32;19969;-38
2021/08/30 09:37:51;;;;;;;;;;;35.20;22.40;;;;;;4358436;32;20382;-39
2021/08/30 09:40:18;;;;;;;;;;;35.00;22.10;;;;;;4357584;32;19965;-38
2021/08/30 09:42:49;;;;;;;;;;;34.90;22.20;;;;;;4359056;32;19973;-40
2021/08/30 09:45:19;;;;;;;;;;;34.60;22.40;;;;;;4359047;32;19958;-39
2021/08/30 09:47:54;;;;;;;;;;;34.50;22.60;;;;;;4358716;32;19958;-39
2021/08/30 09:50:29;;;;;;;;;;;34.40;22.80;;;;;;4358998;32;20049;-39
2021/08/30 09:52:56;;;;;;;;;;;34.30;22.70;;;;;;4358891;32;19958;-39
2021/08/30 09:55:22;;;;;;;;;;;34.20;22.80;;;;;;4358676;32;19957;-40
2021/08/30 09:57:50;;;;;;;;;;;34.20;23.00;;;;;;4357486;32;19973;-38
2021/08/30 10:00:17;;;;;;;;;;;34.00;22.70;;;;;;4344903;32;19960;-39
2021/08/30 10:02:48;;;;;;;;;;;34.10;21.00;;;;;;4358797;32;19961;-40
2021/08/30 10:05:17;;;;;;;;;;;34.20;20.60;;;;;;4356851;32;19958;-39
2021/08/30 10:07:45;;;;;;;;;;;34.50;20.50;;;;;;4358364;32;19984;-39
2021/08/30 10:10:13;;;;;;;;;;;34.60;21.60;;;;;;4357978;32;19965;-38
2021/08/30 10:12:40;;;;;;;;;;;34.60;22.10;;;;;;4356567;32;19981;-39
2021/08/30 10:15:07;;;;;;;;;;;34.70;22.80;;;;;;4357987;32;19961;-39
2021/08/30 10:17:33;;;;;;;;;;;34.70;22.40;;;;;;4355523;32;19982;-39
2021/08/30 10:20:00;;;;;;;;;;;34.70;22.60;;;;;;4358009;32;20012;-39
2021/08/30 10:22:26;;;;;;;;;;;34.70;22.30;;;;;;4356023;32;20422;-39
2021/08/30 10:24:53;;;;;;;;;;;34.90;21.50;;;;;;4358459;32;19961;-39
2021/08/30 10:27:34;;;;;;;;;;;35.10;21.00;;;;;;4358295;32;19973;-39
2021/08/30 10:30:06;;;;;;;;;;;35.40;21.10;;;;;;4358334;32;20449;-38
2021/08/30 10:32:40;;;;;;;;;;;35.40;21.50;;;;;;4358405;32;19962;-38
2021/08/30 10:35:20;;;;;;;;;;;35.50;21.90;;;;;;4358338;32;19961;-38
2021/08/30 10:37:55;;;;;;;;;;;35.40;22.20;;;;;;4358370;32;19960;-39
2021/08/30 10:40:22;;;;;;;;;;;35.30;22.10;;;;;;4358278;32;19958;-39
2021/08/30 10:43:06;;;;;;;;;;;35.20;22.20;;;;;;4358229;32;20103;-39
2021/08/30 10:45:41;;;;;;;;;;;35.10;22.20;;;;;;4358538;32;20065;-38
2021/08/30 10:48:15;;;;;;;;;;;35.10;22.30;;;;;;4358061;32;19965;-39
2021/08/30 10:50:47;;;;;;;;;;;35.10;22.30;;;;;;4357906;32;19954;-38
2021/08/30 10:53:22;;;;;;;;;;;35.20;22.40;;;;;;4358032;32;20001;-43
2021/08/30 10:55:54;;;;;;;;;;;35.20;22.40;;;;;;4357984;32;20128;-39
2021/08/30 10:58:22;;;;;;;;;;;35.30;22.50;;;;;;4345270;32;19972;-38
2021/08/30 11:00:49;;;;;;;;;;;35.40;22.50;;;;;;4357796;32;20054;-39
2021/08/30 11:03:33;;;;;;;;;;;35.40;22.50;;;;;;4357935;32;20008;-40
2021/08/30 11:06:06;;;;;;;;;;;35.20;22.50;;;;;;4358289;32;20119;-38
2021/08/30 11:08:34;;;;;;;;;;;35.00;22.40;;;;;;4357906;32;19969;-39
2021/08/30 11:11:26;;;;;;;;;;;34.80;22.50;;;;;;4357843;32;19950;-38
2021/08/30 11:14:08;;;;;;;;;;;34.50;22.50;;;;;;4355933;32;19980;-39
2021/08/30 11:16:38;;;;;;;;;;;34.20;22.60;;;;;;4344462;32;20013;-39
2021/08/30 11:19:12;;;;;;;;;;;34.10;22.80;;;;;;4358257;32;19962;-39
2021/08/30 11:21:47;;;;;;;;;;;34.10;23.00;;;;;;4344331;32;19968;-39
2021/08/30 11:24:34;;;;;;;;;;;34.10;23.00;;;;;;4358338;32;20032;-39
2021/08/30 11:27:08;;;;;;;;;;;34.00;23.00;;;;;;4357928;32;19954;-39
2021/08/30 11:29:40;;;;;;;;;;;34.00;23.00;;;;;;4359165;32;19968;-38
2021/08/30 11:32:07;;;;;;;;;;;33.90;23.00;;;;;;4345530;32;20041;-39
2021/08/30 11:34:36;;;;;;;;;;;33.80;23.20;;;;;;4375628;32;19988;-40
2021/08/30 11:37:03;;;;;;;;;;;33.70;23.20;;;;;;4375128;32;19973;-38
2021/08/30 11:39:30;;;;;;;;;;;33.70;23.10;;;;;;4375549;32;20400;-39
2021/08/30 11:41:58;;;;;;;;;;;33.70;22.80;;;;;;4375684;32;20410;-38
2021/08/30 11:44:25;;;;;;;;;;;33.80;22.80;;;;;;4375506;32;19969;-38
2021/08/30 11:46:55;;;;;;;;;;;33.80;22.80;;;;;;4375243;32;20066;-38
2021/08/30 11:49:23;;;;;;;;;;;33.90;22.90;;;;;;4375452;32;19976;-40
2021/08/30 11:51:50;;;;;;;;;;;33.90;22.80;;;;;;4375231;32;20417;-38
2021/08/30 11:54:37;;;;;;;;;;;33.90;22.90;;;;;;4361482;32;19961;-39
2021/08/30 11:57:06;;;;;;;;;;;34.00;22.80;;;;;;4374589;32;20354;-39
2021/08/30 11:59:36;;;;;;;;;;;34.10;22.70;;;;;;4375414;32;19965;-39
2021/08/30 12:02:04;;;;;;;;;;;34.20;22.60;;;;;;4375242;32;19972;-39
2021/08/30 12:04:32;;;;;;;;;;;34.30;22.80;;;;;;4375076;32;19980;-40
2021/08/30 12:07:09;;;;;;;;;;;34.30;22.70;;;;;;4375154;32;20478;-38
2021/08/30 12:09:43;;;;;;;;;;;34.40;22.70;;;;;;4375470;32;19953;-39
2021/08/30 12:12:38;;;;;;;;;;;34.40;22.90;;;;;;4374974;32;20113;-38
2021/08/30 12:15:09;;;;;;;;;;;34.40;22.90;;;;;;4374129;32;19972;-39
2021/08/30 12:17:41;;;;;;;;;;;34.50;23.30;;;;;;4375177;32;20572;-39
2021/08/30 12:20:12;;;;;;;;;;;34.60;22.80;;;;;;4374926;32;19965;-39
2021/08/30 12:22:59;;;;;;;;;;;35.00;22.80;;;;;;4360564;32;20373;-39
2021/08/30 12:25:30;;;;;;;;;;;35.40;22.70;;;;;;4374824;32;19963;-39
2021/08/30 12:27:56;;;;;;;;;;;35.60;21.70;;;;;;4375270;32;19972;-40
2021/08/30 12:30:27;;;;;;;;;;;35.80;21.60;;;;;;4374486;32;19957;-38
2021/08/30 12:33:00;;;;;;;;;;;35.90;21.00;;;;;;4359797;32;19995;-40
2021/08/30 12:35:35;;;;;;;;;;;35.90;19.80;;;;;;4360406;32;19962;-38
2021/08/30 12:38:09;;;;;;;;;;;36.00;19.70;;;;;;4359552;32;19960;-39
2021/08/30 12:40:37;;;;;;;;;;;36.10;19.80;;;;;;4345620;32;20039;-39
2021/08/30 12:43:03;;;;;;;;;;;36.00;19.50;;;;;;4359564;32;19961;-39
2021/08/30 12:45:30;;;;;;;;;;;36.10;20.00;;;;;;4360066;32;19981;-39
2021/08/30 12:47:56;;;;;;;;;;;36.20;20.70;;;;;;4359522;32;19962;-39
2021/08/30 12:50:23;;;;;;;;;;;36.20;20.60;;;;;;4359804;32;20060;-38
2021/08/30 12:52:49;;;;;;;;;;;36.20;19.80;;;;;;4359404;32;20053;-39
2021/08/30 12:55:15;;;;;;;;;;;36.10;19.60;;;;;;4359770;32;19953;-39
2021/08/30 12:57:42;;;;;;;;;;;36.10;20.00;;;;;;4345233;32;20015;-39
2021/08/30 13:00:11;;;;;;;;;;;36.00;19.10;;;;;;4359214;32;19970;-39
2021/08/30 13:02:47;;;;;;;;;;;36.00;18.90;;;;;;4359291;32;20022;-39
2021/08/30 13:05:15;;;;;;;;;;;36.00;19.00;;;;;;4359210;32;19980;-37
2021/08/30 13:07:43;;;;;;;;;;;36.00;18.40;;;;;;4359147;32;19965;-39
2021/08/30 13:10:10;;;;;;;;;;;35.90;18.20;;;;;;4359295;32;20505;-38
2021/08/30 13:12:36;;;;;;;;;;;36.00;18.10;;;;;;4345632;32;20410;-39
2021/08/30 13:15:03;;;;;;;;;;;36.10;18.90;;;;;;4359539;32;19966;-40
2021/08/30 13:17:29;;;;;;;;;;;36.00;19.30;;;;;;4359207;32;19989;-39
2021/08/30 13:19:56;;;;;;;;;;;36.00;19.10;;;;;;4344842;32;20386;-40
2021/08/30 13:22:22;;;;;;;;;;;35.90;19.00;;;;;;4358856;32;19961;-39
2021/08/30 13:24:48;;;;;;;;;;;35.90;18.90;;;;;;4358513;32;20371;-38
2021/08/30 13:27:14;;;;;;;;;;;35.90;18.70;;;;;;4359033;32;19964;-39
2021/08/30 13:29:40;;;;;;;;;;;35.90;18.10;;;;;;4358691;32;19962;-38
2021/08/30 13:32:07;;;;;;;;;;;35.90;18.40;;;;;;4359145;32;19973;-40
2021/08/30 13:34:33;;;;;;;;;;;35.90;18.20;;;;;;4357520;32;20039;-39
2021/08/30 13:37:00;;;;;;;;;;;35.90;18.40;;;;;;4359157;32;19965;-39
2021/08/30 13:39:26;;;;;;;;;;;35.90;19.00;;;;;;4340995;33;19989;-40
2021/08/30 13:41:52;;;;;;;;;;;35.80;19.80;;;;;;4341386;32;21067;-39
2021/08/30 13:44:18;;;;;;;;;;;35.80;20.40;;;;;;4329216;33;20115;-40
2021/08/30 13:46:45;;;;;;;;;;;35.80;21.00;;;;;;4341373;33;20491;-40
2021/08/30 13:49:11;;;;;;;;;;;35.70;20.70;;;;;;4341689;33;19970;-40
2021/08/30 13:51:37;;;;;;;;;;;35.60;19.60;;;;;;4341377;32;19970;-40
2021/08/30 13:54:03;;;;;;;;;;;35.60;19.40;;;;;;4341382;32;19986;-39
2021/08/30 13:56:29;;;;;;;;;;;35.50;19.10;;;;;;4341327;32;19974;-39
2021/08/30 13:58:56;;;;;;;;;;;35.40;19.10;;;;;;4341300;33;19990;-40
2021/08/30 14:01:23;;;;;;;;;;;35.50;19.30;;;;;;4340987;33;19966;-39
2021/08/30 14:03:49;;;;;;;;;;;35.40;19.10;;;;;;4341489;33;20115;-39
2021/08/30 14:06:16;;;;;;;;;;;35.40;19.20;;;;;;4341228;32;20091;-39
2021/08/30 14:08:42;;;;;;;;;;;35.30;19.20;;;;;;4341319;33;19966;-40
2021/08/30 14:11:08;;;;;;;;;;;35.30;19.40;;;;;;4354798;32;19954;-40
2021/08/30 14:13:34;;;;;;;;;;;35.20;19.40;;;;;;4358547;32;20586;-39
2021/08/30 14:16:01;;;;;;;;;;;35.20;19.30;;;;;;4356803;32;19962;-39
2021/08/30 14:18:27;;;;;;;;;;;35.20;19.40;;;;;;4358183;32;19985;-38
2021/08/30 14:20:53;;;;;;;;;;;35.10;19.90;;;;;;4357023;32;20001;-38
2021/08/30 14:23:19;;;;;;;;;;;35.00;20.30;;;;;;4358405;32;20004;-39
2021/08/30 14:25:46;;;;;;;;;;;35.10;20.60;;;;;;4358173;32;20043;-39